Time;durP1;ratioP1;P1;durP2;ratioP2;P2;SDS_P1;SDS_P2;PMS_P1;PMS_P2;Temp;Humidity;BMP_temperature;BMP_pressure;BME280_temperature;BME280_humidity;BME280_pressure;Samples;Min_cycle;Max_cycle;Signal;HPM_P1;HPM_P2
2021/04/17 00:00:56;;;;;;;5.55;1.77;;;19.00;41.90;;;;;;5123976;27;20139;-38
2021/04/17 00:03:23;;;;;;;7.72;2.20;;;19.00;41.90;;;;;;5123822;27;20090;-38
2021/04/17 00:05:50;;;;;;;4.63;1.90;;;19.00;41.90;;;;;;5122855;27;20074;-38
2021/04/17 00:08:17;;;;;;;10.50;1.90;;;19.10;42.00;;;;;;5123339;27;20047;-38
2021/04/17 00:10:44;;;;;;;5.68;1.88;;;19.00;41.90;;;;;;5123929;27;20543;-37
2021/04/17 00:13:11;;;;;;;5.22;1.92;;;19.00;41.90;;;;;;5123704;27;20138;-38
2021/04/17 00:15:38;;;;;;;4.72;1.77;;;19.00;41.90;;;;;;5122741;27;20058;-37
2021/04/17 00:18:05;;;;;;;4.90;1.77;;;19.00;41.90;;;;;;5123738;27;20143;-38
2021/04/17 00:20:32;;;;;;;6.35;2.00;;;19.00;41.90;;;;;;5122027;27;20075;-38
2021/04/17 00:22:58;;;;;;;5.00;1.23;;;19.00;41.90;;;;;;5106590;27;20434;-37
2021/04/17 00:25:25;;;;;;;5.88;1.60;;;19.00;41.90;;;;;;5122376;27;20077;-38
2021/04/17 00:27:51;;;;;;;4.28;1.92;;;19.00;41.90;;;;;;5124275;27;20451;-38
2021/04/17 00:30:18;;;;;;;4.10;1.88;;;19.00;41.90;;;;;;5106793;27;20444;-38
2021/04/17 00:32:45;;;;;;;6.60;1.90;;;19.00;41.90;;;;;;5123616;27;20054;-37
2021/04/17 00:35:12;;;;;;;6.15;1.77;;;19.00;41.90;;;;;;5122824;27;20040;-38
2021/04/17 00:37:39;;;;;;;4.25;1.75;;;19.00;42.00;;;;;;5124039;27;20444;-38
2021/04/17 00:40:06;;;;;;;4.32;1.88;;;19.00;41.90;;;;;;5123596;27;20082;-38
2021/04/17 00:42:33;;;;;;;5.22;1.80;;;19.00;41.90;;;;;;5123365;27;20096;-38
2021/04/17 00:45:00;;;;;;;7.32;1.83;;;19.00;41.90;;;;;;5121859;27;20051;-38
2021/04/17 00:47:26;;;;;;;5.35;1.90;;;19.00;41.90;;;;;;5123265;27;20079;-38
2021/04/17 00:49:59;;;;;;;6.72;1.80;;;19.00;41.90;;;;;;5104575;27;20051;-38
2021/04/17 00:52:26;;;;;;;4.10;2.22;;;19.00;41.90;;;;;;5122930;27;20079;-37
2021/04/17 00:54:53;;;;;;;3.67;1.80;;;19.00;41.90;;;;;;5122121;27;20046;-37
2021/04/17 00:57:20;;;;;;;4.80;1.80;;;19.00;41.90;;;;;;5105491;27;20133;-38
2021/04/17 00:59:46;;;;;;;6.10;1.90;;;19.00;41.90;;;;;;5123287;27;20082;-38
2021/04/17 01:02:20;;;;;;;5.25;1.77;;;19.00;41.90;;;;;;5122040;27;20465;-37
2021/04/17 01:04:50;;;;;;;4.85;1.80;;;19.00;41.90;;;;;;5121753;27;20047;-38
2021/04/17 01:07:24;;;;;;;3.42;1.77;;;19.00;41.90;;;;;;5123390;27;20086;-38
2021/04/17 01:10:11;;;;;;;4.70;1.98;;;19.00;41.90;;;;;;5122052;27;20809;-38
2021/04/17 01:12:41;;;;;;;4.55;1.88;;;19.00;41.90;;;;;;5108905;27;20088;-37
2021/04/17 01:15:13;;;;;;;5.00;1.73;;;19.00;41.90;;;;;;5120911;27;20051;-38
2021/04/17 01:17:41;;;;;;;5.43;1.70;;;19.00;41.90;;;;;;5121772;27;20078;-38
2021/04/17 01:20:22;;;;;;;5.25;1.85;;;19.00;42.50;;;;;;5123216;27;20402;-38
2021/04/17 01:23:17;;;;;;;7.93;1.73;;;19.00;41.90;;;;;;5122866;27;20150;-37
2021/04/17 01:25:48;;;;;;;5.32;1.70;;;19.00;41.90;;;;;;5123021;27;20093;-38
2021/04/17 01:28:17;;;;;;;7.68;1.88;;;19.00;41.90;;;;;;5121382;27;20069;-37
2021/04/17 01:30:45;;;;;;;4.60;1.88;;;19.00;41.90;;;;;;5122621;27;20051;-37
2021/04/17 01:33:13;;;;;;;4.80;1.40;;;19.00;42.00;;;;;;5121571;27;20452;-37
2021/04/17 01:35:40;;;;;;;4.35;1.75;;;19.00;41.90;;;;;;5121736;27;20095;-37
2021/04/17 01:38:14;;;;;;;4.47;1.92;;;19.00;42.00;;;;;;5120842;27;20051;-37
2021/04/17 01:40:44;;;;;;;4.65;1.80;;;19.00;41.90;;;;;;5121437;27;20134;-37
2021/04/17 01:43:13;;;;;;;6.18;2.03;;;19.00;41.90;;;;;;5121455;28;20134;-37
2021/04/17 01:45:42;;;;;;;4.57;2.05;;;19.00;42.00;;;;;;5119943;28;20051;-37
2021/04/17 01:48:10;;;;;;;8.43;2.15;;;19.00;41.90;;;;;;5122914;27;20040;-37
2021/04/17 01:50:39;;;;;;;5.15;1.58;;;19.00;41.90;;;;;;5123018;27;20043;-37
2021/04/17 01:53:10;;;;;;;2.80;1.40;;;19.00;41.90;;;;;;5121544;28;20047;-37
2021/04/17 01:55:38;;;;;;;3.55;1.70;;;19.00;42.00;;;;;;5122178;27;20474;-37
2021/04/17 01:58:05;;;;;;;2.92;1.80;;;19.00;42.00;;;;;;5123048;28;20075;-37
2021/04/17 02:00:33;;;;;;;4.18;1.77;;;19.00;42.00;;;;;;5121332;28;20044;-37
2021/04/17 02:03:00;;;;;;;4.80;2.13;;;19.00;41.90;;;;;;5121572;28;20468;-37
2021/04/17 02:05:27;;;;;;;2.85;1.55;;;19.00;41.90;;;;;;5121457;27;20090;-38
2021/04/17 02:07:58;;;;;;;5.35;1.38;;;19.00;41.90;;;;;;5120931;28;20535;-37
2021/04/17 02:10:25;;;;;;;7.25;1.85;;;19.00;42.00;;;;;;5121071;27;20044;-37
2021/04/17 02:12:52;;;;;;;2.80;1.50;;;19.00;41.90;;;;;;5120726;28;20071;-37
2021/04/17 02:15:18;;;;;;;3.97;1.80;;;19.00;41.90;;;;;;5120637;28;20047;-38
2021/04/17 02:17:54;;;;;;;6.15;1.98;;;19.00;41.90;;;;;;5121875;27;20104;-37
2021/04/17 02:20:34;;;;;;;4.32;1.60;;;19.00;42.00;;;;;;5121699;27;20452;-37
2021/04/17 02:23:01;;;;;;;3.47;1.65;;;19.00;42.00;;;;;;5122467;27;20047;-37
2021/04/17 02:25:30;;;;;;;4.65;1.60;;;19.00;41.90;;;;;;5120788;27;20044;-38
2021/04/17 02:27:56;;;;;;;4.70;1.42;;;19.00;41.90;;;;;;5122655;27;20474;-38
2021/04/17 02:30:23;;;;;;;3.58;1.80;;;19.00;41.90;;;;;;5120735;28;20043;-37
2021/04/17 02:32:50;;;;;;;6.50;2.00;;;19.00;41.90;;;;;;5121302;28;20069;-38
2021/04/17 02:35:17;;;;;;;5.78;1.77;;;19.00;41.90;;;;;;5121592;27;20134;-38
2021/04/17 02:37:44;;;;;;;3.72;1.58;;;19.00;41.90;;;;;;5121667;27;20047;-38
2021/04/17 02:40:11;;;;;;;8.20;1.45;;;19.00;41.90;;;;;;5125934;27;20566;-37
2021/04/17 02:42:37;;;;;;;4.85;1.80;;;19.00;41.90;;;;;;5125424;27;20487;-38
2021/04/17 02:45:05;;;;;;;5.78;1.80;;;19.00;41.90;;;;;;5123891;27;20093;-38
2021/04/17 02:47:31;;;;;;;3.20;1.60;;;19.00;41.90;;;;;;5124967;27;20112;-38
2021/04/17 02:49:58;;;;;;;2.92;1.50;;;19.00;41.90;;;;;;5123154;27;20054;-38
2021/04/17 02:52:25;;;;;;;4.85;1.50;;;19.00;42.00;;;;;;5125210;27;20047;-38
2021/04/17 02:54:51;;;;;;;7.00;1.60;;;19.00;42.00;;;;;;5125556;27;20063;-38
2021/04/17 02:57:18;;;;;;;4.32;1.55;;;19.00;42.00;;;;;;5124651;27;20453;-38
2021/04/17 02:59:45;;;;;;;3.42;1.65;;;19.00;41.90;;;;;;5124775;27;20043;-38
2021/04/17 03:02:11;;;;;;;9.00;1.80;;;19.00;41.90;;;;;;5123630;27;20074;-38
2021/04/17 03:04:38;;;;;;;3.55;1.40;;;19.00;41.90;;;;;;5125198;27;20036;-38
2021/04/17 03:07:05;;;;;;;4.13;1.70;;;19.00;41.90;;;;;;5124671;27;20096;-38
2021/04/17 03:09:31;;;;;;;3.72;1.45;;;19.00;41.90;;;;;;5124209;27;20070;-38
2021/04/17 03:11:58;;;;;;;4.30;1.65;;;19.00;41.90;;;;;;5124503;27;20460;-38
2021/04/17 03:14:24;;;;;;;2.67;1.25;;;19.00;41.90;;;;;;5124871;27;20096;-38
2021/04/17 03:16:51;;;;;;;7.68;1.70;;;19.00;41.90;;;;;;5124401;27;20054;-38
2021/04/17 03:19:18;;;;;;;4.25;1.45;;;19.00;41.90;;;;;;5125323;27;20052;-38
2021/04/17 03:21:45;;;;;;;3.53;1.60;;;19.00;41.90;;;;;;5126016;27;20047;-38
2021/04/17 03:24:12;;;;;;;2.72;1.40;;;19.00;41.90;;;;;;5124683;27;20441;-38
2021/04/17 03:26:39;;;;;;;4.35;1.70;;;19.00;41.90;;;;;;5124658;27;20067;-38
2021/04/17 03:29:05;;;;;;;4.15;1.60;;;19.00;41.90;;;;;;5124962;27;20071;-38
2021/04/17 03:31:32;;;;;;;3.60;1.50;;;19.00;41.90;;;;;;5124784;27;20055;-38
2021/04/17 03:33:59;;;;;;;3.42;1.50;;;19.00;41.90;;;;;;5124523;27;20534;-38
2021/04/17 03:36:26;;;;;;;3.78;1.50;;;19.00;41.90;;;;;;5124722;27;20046;-38
2021/04/17 03:38:54;;;;;;;6.25;1.80;;;19.00;42.00;;;;;;5124191;27;20043;-38
2021/04/17 03:41:21;;;;;;;4.03;1.60;;;19.00;41.90;;;;;;5124376;27;20172;-38
2021/04/17 03:43:47;;;;;;;2.63;1.55;;;19.00;41.90;;;;;;5124241;27;20131;-39
2021/04/17 03:46:14;;;;;;;3.13;1.80;;;19.00;41.90;;;;;;5124488;27;20051;-38
2021/04/17 03:48:41;;;;;;;5.13;1.80;;;19.00;42.00;;;;;;5124263;27;20166;-38
2021/04/17 03:51:08;;;;;;;3.45;1.50;;;19.00;42.00;;;;;;5123916;27;20101;-38
2021/04/17 03:53:34;;;;;;;3.05;1.40;;;19.00;42.00;;;;;;5123558;27;20075;-38
2021/04/17 03:56:01;;;;;;;3.40;1.60;;;19.00;42.00;;;;;;5123308;27;20615;-38
2021/04/17 03:58:27;;;;;;;2.17;1.45;;;19.00;41.90;;;;;;5123738;27;20537;-38
2021/04/17 04:00:54;;;;;;;2.95;1.50;;;19.00;42.00;;;;;;5122140;27;20050;-38
2021/04/17 04:03:21;;;;;;;3.63;1.58;;;19.00;42.00;;;;;;5124768;27;20135;-38
2021/04/17 04:05:47;;;;;;;5.68;1.80;;;19.00;42.50;;;;;;5123850;27;20125;-37
2021/04/17 04:08:14;;;;;;;5.30;1.80;;;19.00;41.90;;;;;;5123523;27;20043;-38
2021/04/17 04:10:40;;;;;;;4.63;1.67;;;19.00;42.00;;;;;;5124004;27;20044;-38
2021/04/17 04:13:07;;;;;;;3.55;1.58;;;19.00;41.90;;;;;;5123414;27;20043;-38
2021/04/17 04:15:34;;;;;;;3.88;1.50;;;19.00;41.90;;;;;;5122276;27;20055;-38
2021/04/17 04:18:00;;;;;;;4.40;1.40;;;19.00;42.00;;;;;;5124196;27;20036;-38
2021/04/17 04:20:27;;;;;;;2.38;1.42;;;19.00;42.00;;;;;;5123572;27;20074;-38
2021/04/17 04:22:54;;;;;;;6.07;1.50;;;19.00;42.00;;;;;;5123801;27;20439;-38
2021/04/17 04:25:20;;;;;;;3.28;1.52;;;19.00;41.90;;;;;;5123925;27;20100;-38
2021/04/17 04:27:47;;;;;;;2.22;1.33;;;19.00;41.90;;;;;;5124717;27;20104;-38
2021/04/17 04:30:14;;;;;;;2.30;1.38;;;19.00;42.00;;;;;;5121564;27;20039;-38
2021/04/17 04:32:40;;;;;;;3.63;1.38;;;19.00;41.90;;;;;;5105075;27;20047;-38
2021/04/17 04:35:08;;;;;;;2.85;1.40;;;19.00;42.00;;;;;;5121669;27;20062;-38
2021/04/17 04:37:35;;;;;;;3.10;1.60;;;19.00;42.00;;;;;;5123799;27;20470;-38
2021/04/17 04:40:03;;;;;;;2.70;1.65;;;19.00;42.00;;;;;;5123136;27;20079;-38
2021/04/17 04:42:29;;;;;;;2.55;1.30;;;19.00;41.90;;;;;;5105060;27;20060;-38
2021/04/17 04:44:56;;;;;;;3.90;1.63;;;19.00;41.90;;;;;;5122101;27;20940;-38
2021/04/17 04:47:23;;;;;;;4.70;1.58;;;19.00;41.90;;;;;;5123150;27;20440;-38
2021/04/17 04:49:49;;;;;;;3.38;1.50;;;19.00;41.90;;;;;;5123305;27;20134;-38
2021/04/17 04:52:20;;;;;;;2.47;1.38;;;19.00;41.90;;;;;;5123661;27;20130;-38
2021/04/17 04:54:46;;;;;;;2.35;1.40;;;19.00;42.00;;;;;;5121605;27;20120;-38
2021/04/17 04:57:13;;;;;;;3.35;1.73;;;19.00;41.90;;;;;;5123641;27;20063;-38
2021/04/17 04:59:40;;;;;;;3.35;1.63;;;19.00;42.00;;;;;;5123374;27;20097;-38
2021/04/17 05:02:07;;;;;;;5.72;1.73;;;19.00;42.00;;;;;;5122606;27;20048;-39
2021/04/17 05:04:34;;;;;;;2.55;1.40;;;19.00;41.90;;;;;;5122429;27;20403;-38
2021/04/17 05:07:00;;;;;;;3.38;1.65;;;19.00;42.00;;;;;;5123082;27;20449;-38
2021/04/17 05:09:27;;;;;;;3.42;1.50;;;19.00;41.90;;;;;;5106014;28;20134;-39
2021/04/17 05:11:53;;;;;;;3.53;1.45;;;19.00;41.90;;;;;;5123670;27;20044;-38
2021/04/17 05:14:20;;;;;;;3.25;1.55;;;19.00;41.90;;;;;;5120573;27;20059;-38
2021/04/17 05:16:47;;;;;;;2.38;1.20;;;19.00;41.90;;;;;;5122446;27;20511;-38
2021/04/17 05:19:13;;;;;;;2.50;1.33;;;19.00;42.00;;;;;;5122836;27;20051;-38
2021/04/17 05:21:41;;;;;;;2.95;1.17;;;19.00;41.90;;;;;;5123131;27;20039;-38
2021/04/17 05:24:08;;;;;;;2.92;1.20;;;19.00;42.00;;;;;;5122144;27;20096;-39
2021/04/17 05:26:35;;;;;;;5.63;1.70;;;19.00;41.90;;;;;;5121748;27;20131;-38
2021/04/17 05:29:03;;;;;;;4.45;1.38;;;18.90;41.90;;;;;;5120948;27;20039;-38
2021/04/17 05:31:30;;;;;;;1.98;1.20;;;19.00;41.90;;;;;;5122217;27;20054;-38
2021/04/17 05:33:57;;;;;;;3.22;1.45;;;19.00;41.90;;;;;;5121344;27;20058;-38
2021/04/17 05:36:24;;;;;;;2.22;1.02;;;18.90;41.90;;;;;;5122283;27;20104;-38
2021/04/17 05:38:52;;;;;;;3.45;1.58;;;19.00;41.90;;;;;;5103054;27;20507;-39
2021/04/17 05:41:25;;;;;;;4.82;1.40;;;19.00;41.90;;;;;;5122032;27;20570;-40
2021/04/17 05:43:52;;;;;;;3.60;1.73;;;19.00;41.90;;;;;;5123173;27;20142;-38
2021/04/17 05:46:20;;;;;;;4.68;1.52;;;19.00;41.90;;;;;;5122921;27;20093;-38
2021/04/17 05:48:47;;;;;;;2.60;1.20;;;19.00;41.90;;;;;;5121263;28;20066;-38
2021/04/17 05:51:13;;;;;;;2.28;1.40;;;19.00;42.00;;;;;;5122448;28;20051;-38
2021/04/17 05:53:40;;;;;;;2.70;1.50;;;19.00;41.90;;;;;;5122352;27;20507;-38
2021/04/17 05:56:08;;;;;;;3.17;1.30;;;19.00;41.90;;;;;;5121953;28;20061;-39
2021/04/17 05:58:35;;;;;;;3.35;1.50;;;19.00;41.90;;;;;;5122153;27;20134;-38
2021/04/17 06:01:03;;;;;;;3.42;1.42;;;19.00;42.00;;;;;;5122099;28;20529;-38
2021/04/17 06:03:29;;;;;;;3.00;1.48;;;19.00;41.90;;;;;;5122537;27;20066;-38
2021/04/17 06:05:56;;;;;;;3.15;1.50;;;19.00;41.90;;;;;;5123198;27;20104;-39
2021/04/17 06:08:22;;;;;;;3.33;1.45;;;19.00;42.00;;;;;;5121951;27;20113;-38
2021/04/17 06:10:49;;;;;;;3.50;1.40;;;19.00;42.00;;;;;;5120895;28;20075;-39
2021/04/17 06:13:16;;;;;;;3.08;1.50;;;19.00;42.00;;;;;;5122118;27;20071;-38
2021/04/17 06:15:42;;;;;;;1.88;1.30;;;19.00;42.00;;;;;;5125527;27;20127;-38
2021/04/17 06:18:09;;;;;;;1.85;1.10;;;19.00;41.90;;;;;;5126263;27;20047;-38
2021/04/17 06:20:36;;;;;;;2.72;1.25;;;19.00;41.90;;;;;;5125357;27;20065;-38
2021/04/17 06:23:03;;;;;;;3.88;1.38;;;19.00;41.90;;;;;;5126590;27;20039;-39
2021/04/17 06:25:30;;;;;;;4.07;1.50;;;18.90;41.90;;;;;;5125313;27;20054;-38
2021/04/17 06:27:57;;;;;;;2.55;1.42;;;19.00;41.90;;;;;;5125258;27;20047;-38
2021/04/17 06:30:23;;;;;;;2.05;1.30;;;19.00;42.00;;;;;;5126444;27;20059;-38
2021/04/17 06:32:50;;;;;;;4.05;1.20;;;19.00;41.90;;;;;;5124993;27;20052;-38
2021/04/17 06:35:17;;;;;;;4.10;1.65;;;19.00;42.00;;;;;;5125475;27;20526;-38
2021/04/17 06:37:44;;;;;;;4.13;1.45;;;19.00;41.90;;;;;;5125298;27;20483;-38
2021/04/17 06:40:11;;;;;;;2.22;1.45;;;19.00;41.90;;;;;;5126509;27;20066;-38
2021/04/17 06:42:43;;;;;;;2.95;1.33;;;19.00;41.90;;;;;;5124191;27;20063;-38
2021/04/17 06:45:13;;;;;;;3.60;1.20;;;19.00;41.90;;;;;;5124522;27;20464;-38
2021/04/17 06:47:40;;;;;;;2.40;1.30;;;19.00;41.90;;;;;;5124929;27;20392;-38
2021/04/17 06:50:08;;;;;;;2.53;1.30;;;19.00;42.00;;;;;;5125294;27;20054;-38
2021/04/17 06:52:41;;;;;;;2.92;1.38;;;19.00;41.90;;;;;;5123847;27;20082;-38
2021/04/17 06:55:09;;;;;;;2.75;1.40;;;19.00;41.90;;;;;;5124547;27;20444;-38
2021/04/17 06:57:36;;;;;;;2.25;0.98;;;19.00;41.90;;;;;;5124034;27;20043;-38
2021/04/17 07:00:09;;;;;;;2.42;1.20;;;19.00;41.90;;;;;;5124846;27;20047;-38
2021/04/17 07:02:36;;;;;;;2.72;1.30;;;19.00;41.90;;;;;;5125018;27;20131;-39
2021/04/17 07:05:05;;;;;;;1.75;1.30;;;19.00;42.00;;;;;;5125134;27;20050;-38
2021/04/17 07:07:33;;;;;;;2.65;1.13;;;19.00;41.90;;;;;;5123880;27;20120;-38
2021/04/17 07:09:59;;;;;;;2.25;1.42;;;19.00;41.90;;;;;;5124498;27;20495;-38
2021/04/17 07:12:27;;;;;;;2.13;1.27;;;19.00;41.90;;;;;;5124998;27;20495;-38
2021/04/17 07:14:54;;;;;;;3.15;1.40;;;19.00;41.90;;;;;;5125558;27;20091;-40
2021/04/17 07:17:22;;;;;;;1.95;1.20;;;19.00;41.90;;;;;;5125642;27;20039;-38
2021/04/17 07:19:59;;;;;;;2.25;1.30;;;19.00;41.90;;;;;;5124668;27;20058;-38
2021/04/17 07:22:27;;;;;;;2.50;1.30;;;19.00;41.90;;;;;;5124367;27;20118;-39
2021/04/17 07:24:56;;;;;;;2.78;1.25;;;19.00;41.90;;;;;;5123005;27;20116;-38
2021/04/17 07:27:46;;;;;;;3.08;1.17;;;19.00;41.90;;;;;;5123639;27;20449;-38
2021/04/17 07:30:15;;;;;;;1.63;1.20;;;19.00;41.90;;;;;;5124710;27;20407;-39
2021/04/17 07:33:01;;;;;;;3.10;1.45;;;19.00;41.90;;;;;;5123567;27;20055;-38
2021/04/17 07:35:34;;;;;;;2.95;1.17;;;19.00;41.90;;;;;;5123495;27;20076;-38
2021/04/17 07:38:11;;;;;;;4.00;1.35;;;19.00;41.90;;;;;;5124527;27;20516;-38
2021/04/17 07:40:39;;;;;;;2.78;1.35;;;19.00;41.90;;;;;;5123804;27;20124;-38
2021/04/17 07:43:07;;;;;;;2.47;1.30;;;19.00;41.90;;;;;;5124968;27;20044;-38
2021/04/17 07:45:41;;;;;;;1.95;1.10;;;19.00;41.90;;;;;;5124761;27;20039;-38
2021/04/17 07:48:19;;;;;;;;;;;19.00;41.90;;;;;;5124548;27;20408;-38
2021/04/17 07:50:47;;;;;;;1.30;1.10;;;19.00;41.90;;;;;;5123774;27;19927;-39
2021/04/17 07:53:27;;;;;;;4.10;1.50;;;19.00;41.90;;;;;;5124354;27;20070;-38
2021/04/17 07:55:54;;;;;;;1.70;1.20;;;19.00;41.90;;;;;;5123697;27;20048;-38
2021/04/17 07:58:23;;;;;;;1.92;1.08;;;19.00;41.90;;;;;;5123808;27;20092;-38
2021/04/17 08:00:50;;;;;;;1.88;1.25;;;19.00;41.90;;;;;;5106042;27;20444;-38
2021/04/17 08:03:18;;;;;;;1.88;1.20;;;19.00;41.90;;;;;;5122747;27;20079;-38
2021/04/17 08:05:46;;;;;;;2.20;1.17;;;19.00;41.90;;;;;;5123594;27;20043;-38
2021/04/17 08:08:14;;;;;;;2.53;1.08;;;19.00;41.90;;;;;;5123817;27;20096;-38
2021/04/17 08:10:42;;;;;;;2.95;1.17;;;19.00;41.90;;;;;;5122763;27;20443;-38
2021/04/17 08:13:10;;;;;;;6.22;1.20;;;19.00;41.90;;;;;;5123947;27;20121;-38
2021/04/17 08:15:37;;;;;;;2.72;1.42;;;19.00;41.90;;;;;;5122932;27;20116;-38
2021/04/17 08:18:04;;;;;;;1.92;1.48;;;19.00;42.00;;;;;;5123840;27;20047;-38
2021/04/17 08:20:32;;;;;;;2.47;1.30;;;19.00;41.90;;;;;;5123582;27;20050;-38
2021/04/17 08:22:59;;;;;;;2.17;1.08;;;19.00;41.90;;;;;;5123346;27;20074;-38
2021/04/17 08:25:26;;;;;;;3.47;1.10;;;19.00;41.90;;;;;;5123226;27;20043;-38
2021/04/17 08:27:53;;;;;;;1.98;1.38;;;19.00;41.90;;;;;;5124756;27;20048;-38
2021/04/17 08:30:26;;;;;;;1.52;1.10;;;19.00;41.90;;;;;;5105100;27;20074;-38
2021/04/17 08:32:53;;;;;;;2.17;1.30;;;19.00;41.90;;;;;;5122363;27;20055;-38
2021/04/17 08:35:23;;;;;;;3.35;1.02;;;19.00;41.90;;;;;;5122165;27;20398;-39
2021/04/17 08:40:37;;;;;;;1.50;1.23;;;19.00;41.90;;;;;;5122364;27;20503;-39
2021/04/17 08:43:05;;;;;;;2.60;1.10;;;19.00;41.90;;;;;;5123012;27;20051;-38
2021/04/17 08:45:32;;;;;;;2.45;1.20;;;19.00;41.90;;;;;;5104259;27;20046;-38
2021/04/17 08:48:03;;;;;;;1.92;1.30;;;19.00;41.90;;;;;;5121777;27;20047;-38
2021/04/17 08:50:30;;;;;;;1.95;1.30;;;19.00;41.90;;;;;;5123391;27;20071;-38
2021/04/17 08:53:00;;;;;;;1.55;1.10;;;19.00;41.90;;;;;;5123153;27;20437;-38
2021/04/17 08:55:38;;;;;;;2.67;1.23;;;19.00;41.90;;;;;;5122519;27;20039;-38
2021/04/17 08:58:10;;;;;;;3.83;1.10;;;19.00;41.90;;;;;;5123635;27;20039;-38
2021/04/17 09:00:39;;;;;;;1.13;0.93;;;19.00;41.90;;;;;;5121958;27;20055;-38
2021/04/17 09:03:06;;;;;;;1.75;1.30;;;19.00;41.90;;;;;;5122759;27;20134;-38
2021/04/17 09:05:45;;;;;;;2.45;1.00;;;19.00;41.90;;;;;;5121174;27;20412;-38
2021/04/17 09:08:14;;;;;;;1.90;1.20;;;19.00;41.90;;;;;;5122109;27;20384;-38
2021/04/17 09:10:45;;;;;;;1.67;1.08;;;19.00;41.90;;;;;;5123089;27;20043;-38
2021/04/17 09:13:17;;;;;;;2.75;1.30;;;19.00;41.90;;;;;;5104803;27;20047;-38
2021/04/17 09:16:04;;;;;;;1.48;1.20;;;19.00;41.90;;;;;;5122498;27;20051;-38
2021/04/17 09:18:35;;;;;;;1.30;0.90;;;19.00;41.90;;;;;;5103513;27;20490;-38
2021/04/17 09:21:09;;;;;;;1.58;1.08;;;19.00;41.90;;;;;;5122005;27;20126;-38
2021/04/17 09:23:46;;;;;;;1.67;1.13;;;19.00;41.90;;;;;;5122029;27;20473;-38
2021/04/17 09:26:45;;;;;;;2.40;1.30;;;19.00;41.90;;;;;;5122626;27;20047;-38
2021/04/17 09:29:17;;;;;;;1.98;1.30;;;19.00;41.90;;;;;;5027629;28;20066;-38
2021/04/17 09:31:45;;;;;;;2.75;1.10;;;19.00;41.90;;;;;;5028453;28;20049;-38
2021/04/17 09:34:16;;;;;;;2.63;1.30;;;19.00;41.90;;;;;;5028515;28;20053;-38
2021/04/17 09:36:44;;;;;;;2.40;1.30;;;19.00;41.90;;;;;;5026785;28;20098;-38
2021/04/17 09:39:31;;;;;;;3.17;1.08;;;19.00;41.90;;;;;;5027521;28;20049;-38
2021/04/17 09:42:03;;;;;;;1.83;1.30;;;19.00;41.90;;;;;;5027105;28;20045;-38
2021/04/17 09:44:47;;;;;;;3.25;1.33;;;19.00;41.90;;;;;;5027134;28;20057;-38
2021/04/17 09:47:16;;;;;;;1.00;0.90;;;19.00;41.90;;;;;;5027311;28;20073;-38
2021/04/17 09:49:45;;;;;;;2.85;1.00;;;19.00;41.90;;;;;;5026072;28;20041;-38
2021/04/17 09:52:19;;;;;;;1.90;1.20;;;19.00;41.90;;;;;;5026083;28;20107;-38
2021/04/17 09:54:58;;;;;;;2.87;1.37;;;19.00;41.90;;;;;;5026681;28;20073;-38
2021/04/17 09:57:25;;;;;;;2.13;1.23;;;19.00;41.90;;;;;;5027710;28;20136;-39
2021/04/17 09:59:53;;;;;;;2.13;1.20;;;19.00;41.90;;;;;;5027620;28;20053;-38
2021/04/17 10:02:20;;;;;;;2.00;1.27;;;19.00;41.90;;;;;;5027563;28;20132;-38
2021/04/17 10:04:52;;;;;;;1.63;0.90;;;19.00;41.80;;;;;;5072670;28;20124;-38
2021/04/17 10:07:20;;;;;;;2.42;1.05;;;19.00;41.80;;;;;;5118141;27;20567;-38
2021/04/17 10:10:04;;;;;;;2.20;1.13;;;19.00;41.80;;;;;;5121867;27;20044;-38
2021/04/17 10:12:31;;;;;;;1.75;1.13;;;19.00;41.90;;;;;;5120633;28;20050;-38
2021/04/17 10:15:21;;;;;;;2.40;1.20;;;19.00;42.10;;;;;;5119691;27;20047;-38
2021/04/17 10:17:56;;;;;;;3.83;1.30;;;19.00;42.20;;;;;;5122257;28;20722;-39
2021/04/17 10:20:24;;;;;;;6.05;1.40;;;19.00;42.20;;;;;;5123512;27;20123;-40
2021/04/17 10:22:58;;;;;;;2.35;1.27;;;19.00;42.20;;;;;;5120370;28;20444;-42
2021/04/17 10:25:45;;;;;;;5.60;1.20;;;19.00;42.10;;;;;;5121571;28;20044;-38
2021/04/17 10:28:17;;;;;;;3.90;1.08;;;19.10;42.50;;;;;;5121584;28;20127;-40
2021/04/17 10:30:48;;;;;;;3.45;1.30;;;19.00;43.10;;;;;;5121855;27;20054;-40
2021/04/17 10:33:23;;;;;;;4.00;1.50;;;19.00;42.50;;;;;;5121838;28;20448;-40
2021/04/17 10:35:52;;;;;;;3.78;1.58;;;19.00;42.40;;;;;;5121288;27;20047;-39
2021/04/17 10:38:31;;;;;;;2.67;1.40;;;19.10;42.40;;;;;;5122098;27;20047;-39
2021/04/17 10:41:01;;;;;;;8.10;1.40;;;19.00;42.30;;;;;;5120582;27;20051;-39
2021/04/17 10:43:29;;;;;;;6.65;1.20;;;19.00;42.90;;;;;;5120837;27;20043;-41
2021/04/17 10:46:05;;;;;;;4.60;1.10;;;19.00;42.40;;;;;;5121101;27;20180;-40
2021/04/17 10:48:43;;;;;;;2.47;1.00;;;19.00;42.50;;;;;;5120351;28;20046;-39
2021/04/17 10:51:15;;;;;;;5.82;1.45;;;19.00;42.50;;;;;;5119655;28;20402;-40
2021/04/17 10:53:45;;;;;;;4.32;1.70;;;19.00;42.40;;;;;;5121189;28;20054;-39
2021/04/17 10:56:14;;;;;;;5.05;1.00;;;19.10;42.50;;;;;;5121639;27;20103;-40
2021/04/17 10:58:42;;;;;;;5.75;1.33;;;19.10;42.50;;;;;;5120883;27;20406;-39
2021/04/17 11:01:13;;;;;;;6.70;1.42;;;19.00;42.40;;;;;;5126006;27;20100;-38
2021/04/17 11:03:46;;;;;;;3.65;1.10;;;19.10;42.50;;;;;;5124375;27;20057;-39
2021/04/17 11:06:21;;;;;;;5.55;1.13;;;19.00;42.30;;;;;;5123513;27;20043;-39
2021/04/17 11:09:03;;;;;;;9.77;1.40;;;19.10;42.40;;;;;;5122997;27;20043;-38
2021/04/17 11:11:31;;;;;;;5.50;1.45;;;19.10;42.50;;;;;;5124953;27;20073;-39
2021/04/17 11:14:00;;;;;;;4.10;1.25;;;19.10;42.50;;;;;;5123820;27;20055;-39
2021/04/17 11:16:35;;;;;;;4.80;1.15;;;19.10;42.50;;;;;;5123946;27;20047;-38
2021/04/17 11:19:02;;;;;;;3.50;1.13;;;19.10;42.50;;;;;;5123616;27;20048;-39
2021/04/17 11:21:29;;;;;;;4.35;1.33;;;19.10;42.50;;;;;;5125811;27;20051;-38
2021/04/17 11:23:59;;;;;;;2.83;1.45;;;19.10;42.50;;;;;;5122240;27;20048;-39
2021/04/17 11:26:27;;;;;;;2.63;1.40;;;19.10;42.50;;;;;;5125269;27;20079;-40
2021/04/17 11:29:03;;;;;;;3.35;1.40;;;19.10;42.50;;;;;;5125458;27;20094;-38
2021/04/17 11:31:32;;;;;;;3.40;1.52;;;19.10;42.50;;;;;;5124807;27;20051;-38
2021/04/17 11:34:02;;;;;;;4.28;1.20;;;19.10;42.50;;;;;;5124633;27;20047;-38
2021/04/17 11:36:31;;;;;;;4.45;1.30;;;19.10;42.60;;;;;;5123930;27;20043;-38
2021/04/17 11:38:59;;;;;;;5.65;1.35;;;19.10;42.60;;;;;;5124515;27;20043;-38
2021/04/17 11:41:26;;;;;;;3.17;1.25;;;19.10;42.60;;;;;;5125823;27;20070;-39
2021/04/17 11:43:53;;;;;;;4.82;1.33;;;19.10;42.60;;;;;;5123969;27;20043;-38
2021/04/17 11:46:20;;;;;;;3.67;1.05;;;19.10;42.50;;;;;;5125948;27;20166;-39
2021/04/17 11:48:50;;;;;;;5.40;1.50;;;19.10;42.60;;;;;;5124721;27;20134;-38
2021/04/17 11:51:18;;;;;;;7.78;1.20;;;19.10;42.60;;;;;;5125475;27;20050;-39
2021/04/17 11:53:45;;;;;;;3.10;1.42;;;19.10;42.60;;;;;;5124082;27;20116;-38
2021/04/17 11:56:13;;;;;;;7.50;1.02;;;19.10;42.70;;;;;;5125880;27;20061;-38
2021/04/17 11:58:40;;;;;;;5.32;1.40;;;19.10;42.70;;;;;;5124375;27;20422;-39
2021/04/17 12:01:06;;;;;;;5.00;1.00;;;19.10;42.70;;;;;;5107107;27;20039;-38
2021/04/17 12:03:33;;;;;;;3.10;1.20;;;19.10;42.70;;;;;;5124681;27;20074;-39
2021/04/17 12:06:00;;;;;;;4.13;1.25;;;19.10;42.80;;;;;;5123545;27;20063;-39
2021/04/17 12:08:28;;;;;;;9.40;1.30;;;19.10;42.70;;;;;;5125911;27;20041;-39
2021/04/17 12:10:55;;;;;;;8.48;1.40;;;19.10;42.70;;;;;;5123310;27;20047;-39
2021/04/17 12:13:22;;;;;;;5.95;1.40;;;19.10;42.70;;;;;;5123409;27;20069;-39
2021/04/17 12:15:51;;;;;;;7.47;1.58;;;19.10;42.70;;;;;;5125161;27;20432;-38
2021/04/17 12:18:21;;;;;;;2.35;1.00;;;19.10;42.70;;;;;;5123548;27;20128;-38
2021/04/17 12:20:48;;;;;;;2.50;1.00;;;19.10;42.70;;;;;;5123715;27;20043;-38
2021/04/17 12:23:14;;;;;;;2.10;1.10;;;19.10;42.70;;;;;;5123706;27;20121;-39
2021/04/17 12:25:45;;;;;;;4.18;1.30;;;19.10;42.70;;;;;;5124446;27;20059;-38
2021/04/17 12:28:12;;;;;;;9.80;1.40;;;19.10;42.80;;;;;;5124110;27;20088;-38
2021/04/17 12:30:39;;;;;;;8.38;2.40;;;19.10;42.80;;;;;;5124040;27;20091;-38
2021/04/17 12:33:09;;;;;;;7.38;1.60;;;19.10;42.90;;;;;;5123102;27;20065;-38
2021/04/17 12:35:38;;;;;;;5.70;2.10;;;19.10;43.10;;;;;;5123373;27;20099;-39
2021/04/17 12:38:05;;;;;;;9.20;3.17;;;19.10;43.30;;;;;;5123239;27;20097;-40
2021/04/17 12:40:36;;;;;;;10.82;3.50;;;19.10;43.50;;;;;;5123212;27;21083;-38
2021/04/17 12:43:04;;;;;;;12.00;3.25;;;19.10;43.80;;;;;;5123027;27;20049;-39
2021/04/17 12:45:31;;;;;;;9.95;3.58;;;19.10;44.20;;;;;;5123404;27;20047;-39
2021/04/17 12:47:58;;;;;;;9.07;4.50;;;19.10;44.70;;;;;;5124463;27;20043;-39
2021/04/17 12:50:26;;;;;;;9.18;4.45;;;19.10;45.20;;;;;;5122890;27;20047;-39
2021/04/17 12:52:53;;;;;;;10.52;5.40;;;19.10;45.30;;;;;;5123798;27;20585;-39
2021/04/17 12:55:20;;;;;;;8.52;4.55;;;19.10;45.30;;;;;;5122898;27;20100;-38
2021/04/17 12:57:47;;;;;;;12.05;4.95;;;19.10;45.10;;;;;;5122447;27;20065;-38
2021/04/17 13:00:15;;;;;;;10.57;5.10;;;19.10;45.00;;;;;;5122347;27;20070;-39